Time;durP1;ratioP1;P1;durP2;ratioP2;P2;SDS_P1;SDS_P2;PMS_P1;PMS_P2;Temp;Humidity;BMP_temperature;BMP_pressure;BME280_temperature;BME280_humidity;BME280_pressure;Samples;Min_cycle;Max_cycle;Signal;HPM_P1;HPM_P2
2022/09/19 00:00:13;;;;;;;9.40;4.70;;;;;;;10.13;87.37;99328.84;84705;1325;22587;-69
2022/09/19 00:02:42;;;;;;;11.30;4.40;;;;;;;10.09;87.37;99327.67;84733;1329;22584;-75
2022/09/19 00:04:51;;;;;;;8.70;5.10;;;;;;;10.05;87.24;99329.23;84583;1329;22602;-74
2022/09/19 00:07:00;;;;;;;7.30;4.20;;;;;;;10.03;87.06;99329.88;84591;1333;23920;-72
2022/09/19 00:09:11;;;;;;;9.90;4.30;;;;;;;9.98;86.76;99332.42;84733;1330;24178;-73
2022/09/19 00:11:21;;;;;;;10.90;4.20;;;;;;;9.92;86.58;99335.33;84730;1328;23526;-72
2022/09/19 00:13:30;;;;;;;8.50;4.00;;;;;;;9.87;86.42;99336.80;84620;1329;22966;-70
2022/09/19 00:15:50;;;;;;;5.90;4.00;;;;;;;9.84;86.58;99335.23;84685;1330;22584;-70
2022/09/19 00:18:01;;;;;;;8.30;4.70;;;;;;;9.82;86.74;99334.11;84700;1330;24071;-73
2022/09/19 00:20:11;;;;;;;8.40;3.90;;;;;;;9.78;86.49;99333.42;84679;1330;22813;-74
2022/09/19 00:22:20;;;;;;;7.40;3.50;;;;;;;9.74;86.43;99336.44;84714;1330;22832;-72
2022/09/19 00:24:49;;;;;;;7.10;3.70;;;;;;;9.70;86.59;99337.32;84662;1330;22591;-73
2022/09/19 00:26:58;;;;;;;6.70;4.10;;;;;;;9.66;86.54;99332.16;84658;1329;24040;-70
2022/09/19 00:29:06;;;;;;;8.50;3.70;;;;;;;9.63;86.53;99335.76;84670;1329;22594;-70
2022/09/19 00:31:21;;;;;;;7.60;3.60;;;;;;;9.61;86.66;99335.20;84680;1329;22590;-68
2022/09/19 00:33:30;;;;;;;7.30;3.30;;;;;;;9.59;86.76;99334.05;84693;1331;25431;-70
2022/09/19 00:35:39;;;;;;;7.00;3.00;;;;;;;9.57;86.65;99335.56;84667;1330;23956;-69
2022/09/19 00:37:50;;;;;;;7.70;3.10;;;;;;;9.54;86.70;99334.83;84589;1330;22612;-70
2022/09/19 00:39:58;;;;;;;7.80;4.20;;;;;;;9.53;86.63;99336.29;84700;1324;22584;-69
2022/09/19 00:42:15;;;;;;;7.60;3.20;;;;;;;9.49;86.47;99337.55;84710;1329;25464;-74
2022/09/19 00:45:08;;;;;;;6.20;3.00;;;;;;;9.44;86.33;99335.88;84704;1329;22592;-74
2022/09/19 00:47:22;;;;;;;5.90;3.20;;;;;;;9.39;86.59;99335.25;84563;1330;22611;-73
2022/09/19 00:49:32;;;;;;;6.10;3.20;;;;;;;9.35;86.49;99333.55;84707;1329;24034;-72
2022/09/19 00:51:43;;;;;;;6.30;3.50;;;;;;;9.32;86.79;99337.50;84757;1330;23975;-71
2022/09/19 00:53:52;;;;;;;8.70;3.20;;;;;;;9.31;86.76;99333.03;84702;1330;22603;-71
2022/09/19 00:56:01;;;;;;;5.50;3.20;;;;;;;9.30;86.68;99333.07;84709;1330;25320;-70
2022/09/19 00:58:15;;;;;;;7.20;3.30;;;;;;;9.27;86.60;99336.00;84629;1329;22593;-69
2022/09/19 01:00:24;;;;;;;5.30;2.40;;;;;;;9.24;86.76;99338.04;84706;1328;22604;-69
2022/09/19 01:02:33;;;;;;;7.90;2.90;;;;;;;9.23;86.75;99336.55;84698;1329;24943;-69
2022/09/19 01:04:43;;;;;;;6.40;2.80;;;;;;;9.20;86.54;99333.90;84679;1329;22602;-70
2022/09/19 01:06:58;;;;;;;4.80;3.50;;;;;;;9.17;86.72;99336.52;84694;1329;24245;-69
2022/09/19 01:09:27;;;;;;;5.60;2.80;;;;;;;9.15;86.74;99334.20;84548;1330;22671;-69
2022/09/19 01:11:57;;;;;;;5.90;3.50;;;;;;;9.11;86.91;99329.81;84618;1329;22613;-68
2022/09/19 01:14:09;;;;;;;6.40;3.30;;;;;;;9.12;87.03;99334.68;84667;1326;22567;-70
2022/09/19 01:16:24;;;;;;;6.90;3.20;;;;;;;9.10;87.00;99333.73;84581;1333;22844;-71
2022/09/19 01:18:39;;;;;;;5.80;3.40;;;;;;;9.08;87.01;99336.05;84665;1328;22711;-70
2022/09/19 01:21:37;;;;;;;7.50;3.50;;;;;;;9.07;86.93;99334.57;84725;1330;22710;-69
2022/09/19 01:23:49;;;;;;;7.70;3.70;;;;;;;9.02;86.92;99333.94;84701;1329;23977;-69
2022/09/19 01:26:06;;;;;;;8.60;2.80;;;;;;;9.03;87.18;99332.83;84725;1324;22869;-69
2022/09/19 01:28:25;;;;;;;5.50;2.90;;;;;;;9.04;87.13;99333.99;84723;1329;23556;-69
2022/09/19 01:30:34;;;;;;;6.10;3.00;;;;;;;9.00;87.00;99333.49;84682;1329;25309;-70
2022/09/19 01:32:49;;;;;;;7.50;3.50;;;;;;;8.99;87.18;99336.16;84633;1329;22603;-69
2022/09/19 01:35:02;;;;;;;6.20;3.90;;;;;;;8.97;87.08;99337.10;84704;1329;23987;-69
2022/09/19 01:37:14;;;;;;;5.00;2.80;;;;;;;8.96;87.19;99338.03;84758;1330;22714;-69
2022/09/19 01:39:25;;;;;;;5.40;2.90;;;;;;;8.96;87.19;99338.71;84684;1331;22694;-69
2022/09/19 01:41:32;;;;;;;;;;;;;;;8.96;87.20;99337.70;84747;1332;23987;-74
2022/09/19 01:43:42;;;;;;;6.50;3.20;;;;;;;8.91;87.12;99339.33;84683;1332;23929;-74
2022/09/19 01:45:51;;;;;;;4.10;2.80;;;;;;;8.90;87.35;99341.13;84661;1332;22605;-74
2022/09/19 01:48:07;;;;;;;5.30;2.80;;;;;;;8.88;87.33;99338.27;84690;1329;22595;-70
2022/09/19 01:50:20;;;;;;;10.10;3.00;;;;;;;8.87;87.23;99342.98;84691;1330;23493;-70
2022/09/19 01:52:40;;;;;;;6.50;3.50;;;;;;;8.85;87.12;99344.32;84622;1329;24374;-70
2022/09/19 01:54:54;;;;;;;6.00;3.20;;;;;;;8.82;87.20;99348.42;84681;1330;22631;-70
2022/09/19 01:57:16;;;;;;;6.60;3.50;;;;;;;8.81;87.25;99347.27;84737;1330;22580;-73
2022/09/19 01:59:37;;;;;;;5.60;3.50;;;;;;;8.80;87.27;99347.85;84652;1330;22606;-74
2022/09/19 02:01:51;;;;;;;9.30;3.30;;;;;;;8.76;87.14;99348.20;84697;1330;25006;-73
2022/09/19 02:04:03;;;;;;;7.30;3.60;;;;;;;8.74;87.25;99349.85;84620;1325;24507;-73
2022/09/19 02:06:19;;;;;;;4.80;3.40;;;;;;;8.72;87.23;99351.86;84607;1329;25349;-73
2022/09/19 02:08:31;;;;;;;7.60;3.60;;;;;;;8.71;87.33;99355.38;84697;1330;25474;-71
2022/09/19 02:10:44;;;;;;;7.60;4.10;;;;;;;8.70;87.22;99351.63;84679;1328;24344;-71
2022/09/19 02:12:55;;;;;;;5.30;3.10;;;;;;;8.67;87.00;99360.47;84767;1330;22603;-72
2022/09/19 02:15:04;;;;;;;8.30;3.60;;;;;;;8.64;87.09;99356.75;84636;1331;25296;-72
2022/09/19 02:17:15;;;;;;;5.40;4.20;;;;;;;8.62;87.00;99358.41;84735;1330;25354;-73
2022/09/19 02:19:29;;;;;;;5.20;3.70;;;;;;;8.61;87.14;99360.91;84789;1330;22581;-74
2022/09/19 02:21:45;;;;;;;6.70;4.30;;;;;;;8.60;87.07;99359.02;84711;1331;22541;-71
2022/09/19 02:23:56;;;;;;;6.40;3.90;;;;;;;8.57;86.85;99359.34;84704;1330;22709;-71
2022/09/19 02:26:07;;;;;;;8.10;4.30;;;;;;;8.53;86.75;99364.41;84709;1330;25503;-71
2022/09/19 02:28:18;;;;;;;7.50;4.60;;;;;;;8.48;86.77;99364.77;84699;1329;22588;-73
2022/09/19 02:30:27;;;;;;;6.80;4.30;;;;;;;8.46;86.76;99365.77;84670;1330;22596;-74
2022/09/19 02:32:35;;;;;;;12.40;4.70;;;;;;;8.43;86.83;99368.83;84693;1330;22593;-74
2022/09/19 02:34:44;;;;;;;6.90;3.60;;;;;;;8.41;86.74;99368.44;84675;1331;22653;-74
2022/09/19 02:36:56;;;;;;;8.60;3.60;;;;;;;8.36;86.81;99364.09;84713;1330;25265;-70
2022/09/19 02:39:10;;;;;;;5.50;3.60;;;;;;;8.35;86.83;99364.17;84633;1330;23989;-70
2022/09/19 02:41:23;;;;;;;7.40;4.00;;;;;;;8.33;86.98;99367.36;84632;1330;23245;-71
2022/09/19 02:43:37;;;;;;;4.80;4.30;;;;;;;8.33;87.08;99371.20;84691;1332;24236;-71
2022/09/19 02:45:50;;;;;;;5.40;3.50;;;;;;;8.33;87.16;99371.02;84660;1331;22583;-70
2022/09/19 02:48:03;;;;;;;6.00;4.20;;;;;;;8.33;87.16;99371.02;84621;1333;25439;-74
2022/09/19 02:50:16;;;;;;;7.50;4.20;;;;;;;8.32;87.21;99372.27;84648;1330;24144;-74
2022/09/19 02:52:26;;;;;;;6.10;4.00;;;;;;;8.32;87.22;99369.85;84717;1330;22834;-70
2022/09/19 02:54:37;;;;;;;6.60;3.60;;;;;;;8.31;87.25;99369.70;84690;1324;22611;-70
2022/09/19 02:56:45;;;;;;;6.60;3.90;;;;;;;8.32;87.27;99369.68;84745;1331;22690;-72
2022/09/19 02:58:57;;;;;;;5.70;4.10;;;;;;;8.30;87.21;99369.38;84723;1330;22797;-73
2022/09/19 03:01:09;;;;;;;6.00;3.90;;;;;;;8.32;87.26;99368.64;84749;1328;22848;-73
2022/09/19 03:05:51;;;;;;;4.70;3.90;;;;;;;8.31;87.25;99368.33;84688;1330;22913;-70
2022/09/19 03:08:08;;;;;;;9.90;4.20;;;;;;;8.29;87.19;99368.23;84738;1330;25467;-70
2022/09/19 03:10:18;;;;;;;5.50;4.10;;;;;;;8.27;87.15;99366.92;84596;1330;23914;-70
2022/09/19 03:12:31;;;;;;;7.60;4.30;;;;;;;8.25;87.24;99364.91;84723;1326;22655;-69
2022/09/19 03:14:40;;;;;;;7.30;3.70;;;;;;;8.24;87.39;99363.05;84708;1329;23926;-70
2022/09/19 03:16:51;;;;;;;5.60;3.70;;;;;;;8.25;87.44;99367.38;84716;1330;24369;-70
2022/09/19 03:19:00;;;;;;;8.30;4.30;;;;;;;8.24;87.39;99366.35;84676;1329;22683;-69
2022/09/19 03:21:11;;;;;;;6.40;4.90;;;;;;;8.21;87.17;99369.96;84619;1333;22552;-70
2022/09/19 03:23:23;;;;;;;6.40;4.30;;;;;;;8.18;87.02;99370.12;84706;1329;23925;-70
2022/09/19 03:25:32;;;;;;;6.50;4.10;;;;;;;8.14;87.18;99374.29;84697;1330;23151;-71
2022/09/19 03:27:41;;;;;;;8.50;3.90;;;;;;;8.13;87.38;99371.36;84689;1329;22596;-70
2022/09/19 03:29:52;;;;;;;6.10;4.10;;;;;;;8.12;87.30;99374.89;84666;1329;25938;-71
2022/09/19 03:32:01;;;;;;;8.70;3.90;;;;;;;8.11;87.33;99376.65;84696;1330;22763;-70
2022/09/19 03:34:10;;;;;;;5.50;4.30;;;;;;;8.08;87.12;99378.71;84668;1331;22596;-70
2022/09/19 03:36:23;;;;;;;9.00;4.30;;;;;;;8.06;87.37;99383.66;84559;1333;25430;-70
2022/09/19 03:38:32;;;;;;;6.10;4.40;;;;;;;8.05;87.31;99383.88;84708;1329;25442;-73
2022/09/19 03:40:41;;;;;;;4.20;3.10;;;;;;;8.02;87.44;99385.90;84678;1331;22645;-73
2022/09/19 03:42:51;;;;;;;5.20;4.00;;;;;;;8.01;87.56;99383.18;84739;1331;22612;-70
2022/09/19 03:45:00;;;;;;;7.50;4.60;;;;;;;8.00;87.55;99384.77;84744;1330;22612;-69
2022/09/19 03:47:09;;;;;;;9.90;4.10;;;;;;;7.98;87.49;99385.21;84748;1330;22748;-70
2022/09/19 03:49:19;;;;;;;7.40;3.60;;;;;;;7.97;87.45;99387.34;84697;1332;22599;-71
2022/09/19 03:51:27;;;;;;;10.30;4.10;;;;;;;7.94;87.45;99388.16;84730;1332;23870;-70
2022/09/19 03:53:36;;;;;;;6.00;3.90;;;;;;;7.90;87.37;99392.52;84753;1328;23317;-70
2022/09/19 03:55:45;;;;;;;6.40;4.40;;;;;;;7.85;87.27;99393.61;84696;1332;22599;-70
2022/09/19 03:57:54;;;;;;;11.20;4.40;;;;;;;7.80;87.11;99393.47;84704;1328;22778;-74
2022/09/19 04:00:09;;;;;;;7.60;4.30;;;;;;;7.75;87.27;99396.63;84705;1332;22639;-74
2022/09/19 04:02:19;;;;;;;4.70;3.60;;;;;;;7.71;87.46;99395.23;84712;1329;24338;-73
2022/09/19 04:04:28;;;;;;;7.20;4.10;;;;;;;7.71;87.77;99395.07;84652;1329;24115;-73
2022/09/19 04:06:36;;;;;;;7.30;4.10;;;;;;;7.69;87.78;99395.84;84610;1333;22591;-71
2022/09/19 04:08:45;;;;;;;5.60;4.00;;;;;;;7.68;87.81;99397.44;84657;1331;24239;-70
2022/09/19 04:10:54;;;;;;;9.40;5.00;;;;;;;7.69;88.15;99399.98;84682;1332;25362;-70
2022/09/19 04:13:02;;;;;;;10.60;4.00;;;;;;;7.70;88.05;99399.42;84728;1332;24001;-70
2022/09/19 04:15:12;;;;;;;8.40;5.20;;;;;;;7.72;88.08;99400.05;84646;1331;24236;-71
2022/09/19 04:17:22;;;;;;;5.80;5.00;;;;;;;7.73;88.15;99401.21;84733;1331;22599;-71
2022/09/19 04:19:30;;;;;;;9.30;5.50;;;;;;;7.75;88.35;99402.34;84690;1331;22735;-70
2022/09/19 04:21:41;;;;;;;6.00;4.10;;;;;;;7.76;88.31;99406.81;84647;1330;22635;-72
2022/09/19 04:23:50;;;;;;;10.00;5.60;;;;;;;7.77;88.41;99409.38;84642;1332;22589;-73
2022/09/19 04:26:03;;;;;;;11.70;5.60;;;;;;;7.79;88.42;99409.48;84689;1331;22677;-73
2022/09/19 04:28:13;;;;;;;10.50;5.90;;;;;;;7.81;88.36;99407.34;84706;1330;25324;-70
2022/09/19 04:30:24;;;;;;;8.40;5.80;;;;;;;7.81;88.40;99407.48;84590;1333;22940;-70
2022/09/19 04:32:34;;;;;;;9.00;6.00;;;;;;;7.83;88.34;99409.14;84704;1332;22594;-70
2022/09/19 04:34:43;;;;;;;9.90;5.80;;;;;;;7.83;88.36;99409.14;84746;1330;22600;-71
2022/09/19 04:36:52;;;;;;;11.90;6.00;;;;;;;7.84;88.32;99410.85;84742;1332;22665;-71
2022/09/19 04:39:02;;;;;;;7.50;6.10;;;;;;;7.85;88.51;99414.09;84684;1330;22718;-70
2022/09/19 04:41:12;;;;;;;7.40;5.90;;;;;;;7.86;88.54;99414.02;84710;1328;23974;-70
2022/09/19 04:43:25;;;;;;;11.40;7.10;;;;;;;7.87;88.24;99413.48;84727;1330;22591;-75
2022/09/19 04:45:34;;;;;;;9.10;7.00;;;;;;;7.88;88.38;99417.44;84694;1326;24224;-74
2022/09/19 04:47:43;;;;;;;7.30;6.10;;;;;;;7.91;88.28;99421.32;84596;1330;23954;-72
2022/09/19 04:49:53;;;;;;;10.00;6.20;;;;;;;7.93;88.46;99421.40;84688;1331;22657;-75
2022/09/19 04:52:03;;;;;;;11.90;6.50;;;;;;;7.95;88.35;99426.69;84703;1330;22661;-74
2022/09/19 04:54:14;;;;;;;9.30;6.70;;;;;;;7.98;88.41;99424.32;84554;1333;25899;-74
2022/09/19 04:56:22;;;;;;;8.80;6.50;;;;;;;8.01;88.62;99423.48;84686;1324;22589;-71
2022/09/19 04:58:31;;;;;;;10.70;6.60;;;;;;;8.05;88.42;99423.48;84677;1328;22661;-73
2022/09/19 05:00:40;;;;;;;7.40;6.70;;;;;;;8.08;88.45;99429.63;84671;1330;22839;-73
2022/09/19 05:02:55;;;;;;;8.30;6.10;;;;;;;8.11;88.39;99432.61;84661;1330;22730;-73
2022/09/19 05:05:04;;;;;;;6.70;6.00;;;;;;;8.15;88.47;99433.12;84594;1330;23911;-74
2022/09/19 05:07:13;;;;;;;9.90;6.60;;;;;;;8.18;88.39;99439.77;84725;1332;22634;-74
2022/09/19 05:09:22;;;;;;;9.80;8.00;;;;;;;8.21;88.19;99441.54;84698;1330;22608;-74
2022/09/19 05:11:33;;;;;;;8.60;6.70;;;;;;;8.22;87.96;99444.80;84678;1333;22691;-73
2022/09/19 05:13:45;;;;;;;10.00;7.60;;;;;;;8.21;87.60;99442.93;84604;1330;22599;-73
2022/09/19 05:15:56;;;;;;;8.70;7.40;;;;;;;8.22;87.68;99445.16;84607;1331;23927;-73
2022/09/19 05:18:04;;;;;;;10.90;7.10;;;;;;;8.24;87.70;99444.71;84710;1324;22686;-73
2022/09/19 05:20:13;;;;;;;10.30;8.00;;;;;;;8.27;87.78;99444.60;84716;1332;22602;-72
2022/09/19 05:22:22;;;;;;;11.40;7.80;;;;;;;8.28;87.54;99451.32;84681;1332;22613;-69
2022/09/19 05:24:31;;;;;;;12.10;8.60;;;;;;;8.30;87.31;99450.75;84689;1332;25444;-69
2022/09/19 05:26:41;;;;;;;12.20;8.10;;;;;;;8.31;87.46;99452.40;84655;1330;22883;-72
2022/09/19 05:28:50;;;;;;;10.60;8.50;;;;;;;8.33;87.30;99451.99;84672;1329;22670;-73
2022/09/19 05:31:04;;;;;;;9.00;8.10;;;;;;;8.34;87.27;99455.08;84680;1328;24390;-73
2022/09/19 05:33:13;;;;;;;10.70;8.10;;;;;;;8.35;87.25;99456.42;84695;1330;25515;-68
2022/09/19 05:35:22;;;;;;;13.60;8.20;;;;;;;8.38;87.33;99458.06;84662;1330;24132;-70
2022/09/19 05:37:32;;;;;;;16.00;9.00;;;;;;;8.42;87.29;99462.55;84670;1328;23815;-69
2022/09/19 05:39:41;;;;;;;10.40;8.20;;;;;;;8.42;86.77;99463.63;84610;1333;24258;-69
2022/09/19 05:41:49;;;;;;;9.50;8.50;;;;;;;8.44;86.92;99467.52;84690;1330;22631;-71
2022/09/19 05:43:58;;;;;;;9.50;8.60;;;;;;;8.47;86.96;99469.30;84629;1325;22595;-73
2022/09/19 05:46:09;;;;;;;9.50;8.60;;;;;;;8.52;87.27;99468.19;84679;1321;22769;-72
2022/09/19 05:48:20;;;;;;;11.20;8.60;;;;;;;8.58;87.01;99468.30;84622;1333;22608;-73
2022/09/19 05:50:30;;;;;;;12.80;9.50;;;;;;;8.62;86.89;99472.64;84612;1333;22689;-73
2022/09/19 05:55:07;;;;;;;12.60;7.80;;;;;;;8.69;86.81;99472.70;84601;1333;25432;-73
2022/09/19 05:57:18;;;;;;;10.40;7.60;;;;;;;8.74;86.89;99476.46;84679;1330;25264;-68
2022/09/19 05:59:27;;;;;;;11.10;8.70;;;;;;;8.79;86.75;99479.34;84610;1329;22612;-70
2022/09/19 06:01:37;;;;;;;8.30;7.50;;;;;;;8.86;86.82;99483.06;84604;1330;22574;-70
2022/09/19 06:03:47;;;;;;;8.80;7.80;;;;;;;8.90;86.28;99486.51;84688;1324;22600;-73
2022/09/19 06:05:55;;;;;;;9.40;7.90;;;;;;;8.96;86.30;99488.86;84670;1330;22872;-72
2022/09/19 06:08:05;;;;;;;8.60;7.80;;;;;;;9.02;86.32;99488.25;84697;1330;22593;-69
2022/09/19 06:10:14;;;;;;;13.00;8.60;;;;;;;9.05;85.92;99491.55;84606;1330;22591;-71
2022/09/19 06:12:23;;;;;;;10.30;8.50;;;;;;;9.07;85.80;99490.80;84324;1328;515702;-73
2022/09/19 06:14:35;;;;;;;9.80;7.50;;;;;;;9.10;85.71;99494.45;84688;1330;24287;-74
2022/09/19 06:16:44;;;;;;;10.00;8.60;;;;;;;9.11;85.27;99499.81;84722;1329;24013;-71
2022/09/19 06:18:55;;;;;;;9.60;8.60;;;;;;;9.11;85.19;99502.95;84661;1324;22629;-70
2022/09/19 06:21:05;;;;;;;10.20;7.90;;;;;;;9.10;84.83;99505.97;84630;1332;23982;-70
2022/09/19 06:23:14;;;;;;;11.70;9.10;;;;;;;9.07;84.67;99506.44;84709;1328;22717;-73
2022/09/19 06:25:25;;;;;;;9.90;8.90;;;;;;;9.07;84.90;99513.27;84611;1333;24380;-74
2022/09/19 06:27:35;;;;;;;12.80;9.00;;;;;;;9.07;84.95;99515.51;84675;1329;24233;-72
2022/09/19 06:29:44;;;;;;;11.30;8.40;;;;;;;9.09;84.95;99514.52;84711;1329;26026;-73
2022/09/19 06:31:53;;;;;;;10.50;9.00;;;;;;;9.11;85.15;99513.41;84695;1324;22718;-70
2022/09/19 06:34:02;;;;;;;11.30;9.20;;;;;;;9.14;85.06;99516.20;84686;1330;22781;-70
2022/09/19 06:36:12;;;;;;;14.70;8.70;;;;;;;9.15;84.96;99513.19;84678;1328;25035;-69
2022/09/19 06:38:22;;;;;;;10.50;8.00;;;;;;;9.19;84.93;99516.50;84683;1329;25285;-73
2022/09/19 06:40:31;;;;;;;12.70;9.50;;;;;;;9.21;84.85;99517.63;84678;1332;22588;-73
2022/09/19 06:42:40;;;;;;;10.20;9.10;;;;;;;9.24;84.74;99519.57;84685;1328;24006;-73
2022/09/19 06:44:49;;;;;;;12.40;9.50;;;;;;;9.27;84.88;99517.55;84670;1330;22590;-74
2022/09/19 06:46:59;;;;;;;11.90;10.80;;;;;;;9.31;85.22;99523.96;84689;1327;22603;-70
2022/09/19 06:49:09;;;;;;;12.40;9.90;;;;;;;9.36;84.96;99525.47;84685;1332;22776;-68
2022/09/19 06:51:20;;;;;;;12.40;11.10;;;;;;;9.36;84.42;99529.66;84700;1325;22616;-69
2022/09/19 06:53:31;;;;;;;13.20;10.30;;;;;;;9.36;84.58;99533.66;84665;1329;23021;-70
2022/09/19 06:55:40;;;;;;;14.90;10.60;;;;;;;9.38;84.61;99534.09;84714;1328;24262;-70
2022/09/19 06:57:57;;;;;;;12.70;10.50;;;;;;;9.41;84.74;99537.24;84737;1330;22602;-70
2022/09/19 07:00:11;;;;;;;11.20;10.10;;;;;;;9.40;84.29;99539.02;84688;1330;22598;-67
2022/09/19 07:02:21;;;;;;;11.30;10.20;;;;;;;9.40;84.24;99538.86;84702;1330;22596;-73
2022/09/19 07:04:30;;;;;;;11.70;9.70;;;;;;;9.40;83.90;99542.69;84684;1329;23017;-74
2022/09/19 07:06:39;;;;;;;13.40;10.90;;;;;;;9.40;84.03;99542.70;84712;1329;22592;-73
2022/09/19 07:08:48;;;;;;;15.40;10.40;;;;;;;9.42;83.94;99545.73;84617;1326;24064;-74
2022/09/19 07:10:59;;;;;;;12.20;10.60;;;;;;;9.42;83.73;99550.27;84662;1330;22628;-72
2022/09/19 07:13:09;;;;;;;13.50;11.20;;;;;;;9.42;83.87;99549.91;84654;1329;22613;-72
2022/09/19 07:15:19;;;;;;;15.80;11.90;;;;;;;9.43;83.72;99551.27;84619;1329;24205;-73
2022/09/19 07:17:28;;;;;;;16.60;12.50;;;;;;;9.42;83.35;99555.32;84717;1332;22614;-71
2022/09/19 07:19:37;;;;;;;;;;;;;;;9.39;83.51;99560.32;84692;1328;22561;-71
2022/09/19 07:21:47;;;;;;;17.80;11.60;;;;;;;9.36;83.80;99562.02;84710;1328;23424;-69
2022/09/19 07:23:57;;;;;;;17.50;12.80;;;;;;;9.36;83.89;99560.27;84626;1329;22593;-69
2022/09/19 07:26:09;;;;;;;16.60;13.30;;;;;;;9.38;84.12;99565.59;84634;1330;25482;-68
2022/09/19 07:28:21;;;;;;;13.60;11.50;;;;;;;9.39;83.89;99571.79;84670;1330;25462;-69
2022/09/19 07:30:30;;;;;;;14.00;12.60;;;;;;;9.39;83.84;99575.99;84684;1330;24531;-69
2022/09/19 07:32:39;;;;;;;14.50;11.90;;;;;;;9.42;84.09;99574.31;84741;1324;22771;-73
2022/09/19 07:34:48;;;;;;;17.20;13.70;;;;;;;9.46;84.22;99578.09;84721;1329;25378;-72
2022/09/19 07:36:56;;;;;;;13.90;12.50;;;;;;;9.52;84.44;99577.65;84720;1325;22908;-72
2022/09/19 07:39:05;;;;;;;14.00;12.60;;;;;;;9.57;84.47;99581.23;84608;1329;24253;-73
2022/09/19 07:41:16;;;;;;;17.90;13.30;;;;;;;9.62;84.34;99585.90;84690;1330;22859;-73
2022/09/19 07:43:25;;;;;;;16.20;13.20;;;;;;;9.66;84.41;99585.55;84695;1328;25345;-70
2022/09/19 07:45:36;;;;;;;13.80;10.90;;;;;;;9.68;84.42;99587.16;84674;1325;22588;-70
2022/09/19 07:47:49;;;;;;;14.70;11.70;;;;;;;9.69;84.48;99589.02;84691;1329;22733;-73
2022/09/19 07:50:01;;;;;;;14.20;11.20;;;;;;;9.72;84.34;99586.48;84701;1329;22610;-71
2022/09/19 07:52:26;;;;;;;13.60;10.80;;;;;;;9.77;84.50;99592.31;84689;1331;22598;-70
2022/09/19 07:54:35;;;;;;;12.50;10.80;;;;;;;9.79;84.34;99595.50;84627;1330;25450;-68
2022/09/19 07:56:44;;;;;;;11.30;10.20;;;;;;;9.80;84.27;99597.21;84688;1329;22610;-72
2022/09/19 07:58:53;;;;;;;11.40;10.00;;;;;;;9.81;84.20;99603.98;84658;1329;22558;-74
2022/09/19 08:01:04;;;;;;;16.50;11.40;;;;;;;9.83;84.09;99603.19;84691;1330;22661;-72
2022/09/19 08:03:15;;;;;;;14.50;9.70;;;;;;;9.84;84.21;99607.48;84673;1332;22908;-74
2022/09/19 08:05:24;;;;;;;10.50;9.50;;;;;;;9.87;84.42;99611.20;84703;1328;22754;-74
2022/09/19 08:07:33;;;;;;;10.20;9.30;;;;;;;9.90;84.30;99611.23;84628;1330;22588;-74
2022/09/19 08:09:42;;;;;;;9.70;8.70;;;;;;;9.93;84.36;99614.89;84689;1328;22651;-75
2022/09/19 08:11:51;;;;;;;10.00;9.10;;;;;;;9.96;84.34;99616.52;84678;1330;25578;-75
2022/09/19 08:14:01;;;;;;;11.80;9.60;;;;;;;9.99;84.27;99622.98;84671;1328;22651;-75
2022/09/19 08:16:10;;;;;;;9.80;8.70;;;;;;;10.01;84.10;99623.74;84647;1329;23313;-73
2022/09/19 08:18:31;;;;;;;9.70;8.70;;;;;;;10.02;84.20;99625.42;84713;1330;25326;-73
2022/09/19 08:20:40;;;;;;;10.00;9.00;;;;;;;10.04;84.12;99628.16;84626;1330;22639;-72
2022/09/19 08:22:49;;;;;;;11.80;9.20;;;;;;;10.04;84.11;99629.56;84731;1330;23985;-73
2022/09/19 08:24:59;;;;;;;9.50;8.50;;;;;;;10.04;84.10;99634.05;84668;1328;23064;-74
2022/09/19 08:27:09;;;;;;;9.50;8.50;;;;;;;10.02;83.85;99634.67;84694;1328;23217;-71
2022/09/19 08:29:18;;;;;;;9.50;8.40;;;;;;;10.02;83.87;99637.27;84689;1328;25440;-71
2022/09/19 08:31:27;;;;;;;9.20;8.30;;;;;;;10.01;83.75;99642.75;84711;1330;22640;-70
2022/09/19 08:33:36;;;;;;;9.30;8.10;;;;;;;10.00;83.82;99648.39;84686;1329;24269;-70
2022/09/19 08:35:45;;;;;;;9.70;8.80;;;;;;;9.98;83.83;99653.20;84692;1329;25298;-70
2022/09/19 08:37:57;;;;;;;9.40;8.50;;;;;;;9.97;83.79;99650.98;84624;1333;25949;-72
2022/09/19 08:40:18;;;;;;;9.30;8.40;;;;;;;9.96;84.20;99649.09;84689;1329;24087;-73
2022/09/19 08:42:30;;;;;;;10.00;9.10;;;;;;;9.97;84.27;99647.29;84709;1328;25431;-70
2022/09/19 08:44:51;;;;;;;9.80;8.90;;;;;;;9.97;84.12;99645.39;84691;1330;22807;-71
2022/09/19 08:47:07;;;;;;;10.10;8.10;;;;;;;9.97;84.08;99648.89;84689;1330;22910;-71
2022/09/19 08:49:22;;;;;;;10.20;8.50;;;;;;;9.98;84.25;99647.24;84620;1330;22617;-71
2022/09/19 08:51:33;;;;;;;10.70;8.30;;;;;;;10.02;84.28;99649.85;84637;1329;22623;-73
2022/09/19 08:53:45;;;;;;;11.70;10.00;;;;;;;10.05;84.29;99650.41;84593;1330;22613;-71
2022/09/19 08:55:54;;;;;;;9.90;9.00;;;;;;;10.10;84.35;99654.02;84600;1331;24239;-72
2022/09/19 08:58:06;;;;;;;10.30;9.30;;;;;;;10.15;84.30;99658.81;84569;1331;22596;-72
2022/09/19 09:00:19;;;;;;;9.90;8.50;;;;;;;10.18;84.32;99658.85;84611;1329;22615;-74
2022/09/19 09:02:37;;;;;;;9.80;8.80;;;;;;;10.22;84.30;99664.56;84582;1330;22610;-73
2022/09/19 09:04:46;;;;;;;10.30;9.30;;;;;;;10.27;84.25;99664.22;84636;1329;22633;-73
2022/09/19 09:07:08;;;;;;;9.50;8.60;;;;;;;10.32;84.34;99665.38;84656;1330;22648;-73
2022/09/19 09:09:22;;;;;;;8.30;7.60;;;;;;;10.38;84.46;99668.58;84649;1327;22678;-74
2022/09/19 09:11:39;;;;;;;9.00;8.10;;;;;;;10.42;84.15;99667.16;84729;1330;22594;-70
2022/09/19 09:13:56;;;;;;;8.70;7.90;;;;;;;10.44;83.88;99673.14;84714;1330;22746;-70
2022/09/19 09:16:11;;;;;;;8.90;7.30;;;;;;;10.46;83.95;99673.08;84722;1328;22638;-70
2022/09/19 09:18:42;;;;;;;9.30;8.30;;;;;;;10.48;83.93;99671.92;84753;1330;22597;-74
2022/09/19 09:20:51;;;;;;;;;;;;;;;10.49;83.81;99671.31;84704;1329;22862;-72
2022/09/19 09:23:11;;;;;;;9.50;7.70;;;;;;;10.46;83.75;99672.35;84720;1330;24124;-73
2022/09/19 09:25:24;;;;;;;8.60;7.70;;;;;;;10.42;83.70;99671.67;84701;1330;24247;-73
2022/09/19 09:27:36;;;;;;;9.00;7.30;;;;;;;10.41;83.88;99673.31;84720;1330;24315;-73
2022/09/19 09:29:47;;;;;;;7.60;6.90;;;;;;;10.45;84.02;99676.26;84676;1330;22798;-73
2022/09/19 09:31:58;;;;;;;9.70;7.70;;;;;;;10.50;84.12;99676.04;84655;1327;22587;-70
2022/09/19 09:34:12;;;;;;;7.00;6.30;;;;;;;10.54;84.35;99677.89;84610;1329;22593;-70
2022/09/19 09:36:23;;;;;;;6.90;6.30;;;;;;;10.57;84.25;99676.88;84687;1329;22772;-70
2022/09/19 09:38:34;;;;;;;6.90;6.30;;;;;;;10.54;83.92;99679.62;84699;1331;25314;-73
2022/09/19 09:43:20;;;;;;;8.10;6.00;;;;;;;10.52;83.83;99684.07;84757;1332;22816;-74
2022/09/19 09:45:33;;;;;;;6.90;6.00;;;;;;;10.54;84.00;99684.52;84682;1330;23793;-74
2022/09/19 09:47:48;;;;;;;6.70;6.20;;;;;;;10.56;84.05;99687.23;84588;1331;22719;-69
2022/09/19 09:50:02;;;;;;;5.80;5.40;;;;;;;10.58;84.38;99687.97;84726;1325;22713;-70
2022/09/19 09:52:24;;;;;;;6.50;5.90;;;;;;;10.60;84.24;99691.58;84737;1331;22649;-74
2022/09/19 09:57:13;;;;;;;;;;;;;;;10.62;84.24;99688.47;84755;1330;25282;-72
2022/09/19 10:04:33;;;;;;;5.40;5.00;;;;;;;10.64;84.53;99695.73;84701;1330;24395;-71
2022/09/19 10:06:52;;;;;;;7.10;5.30;;;;;;;10.64;84.26;99697.80;84741;1329;24132;-74
2022/09/19 10:09:05;;;;;;;5.60;5.10;;;;;;;10.64;84.29;99701.33;84662;1330;24162;-74
2022/09/19 10:11:18;;;;;;;5.50;5.00;;;;;;;10.64;84.32;99703.94;84641;1329;24238;-74
2022/09/19 10:13:31;;;;;;;5.50;4.80;;;;;;;10.65;84.53;99705.63;84679;1330;22805;-74
2022/09/19 10:15:42;;;;;;;5.70;5.30;;;;;;;10.67;84.55;99705.70;84713;1329;22626;-72
2022/09/19 10:17:53;;;;;;;5.00;4.30;;;;;;;10.68;84.52;99706.14;84704;1330;23927;-70
2022/09/19 10:20:08;;;;;;;5.00;4.40;;;;;;;10.67;84.10;99707.09;84696;1331;22627;-69
2022/09/19 10:22:19;;;;;;;6.30;5.40;;;;;;;10.65;84.41;99707.89;84687;1329;23381;-74
2022/09/19 10:24:52;;;;;;;5.40;4.90;;;;;;;10.65;84.46;99705.96;84679;1329;22596;-72
2022/09/19 10:27:02;;;;;;;6.10;5.00;;;;;;;10.68;84.62;99712.07;84708;1324;23133;-74
2022/09/19 10:29:20;;;;;;;8.10;5.60;;;;;;;10.72;84.49;99716.42;84559;1329;22616;-74
2022/09/19 10:31:34;;;;;;;6.40;5.80;;;;;;;10.71;84.38;99718.38;84730;1330;23808;-73
2022/09/19 10:33:48;;;;;;;6.80;6.10;;;;;;;10.74;84.70;99725.08;84696;1330;22641;-74
2022/09/19 10:35:58;;;;;;;6.50;5.80;;;;;;;10.78;84.70;99722.94;84639;1327;22610;-75
2022/09/19 10:38:13;;;;;;;6.20;5.60;;;;;;;10.82;84.77;99726.71;84594;1331;22839;-74